Lähimpiä lentokenttien sääasemia

 

EFHK - Helsinki/Vantaa, Finland
Ilmasuunta ja etäisyys Sääasema Bassenraitista: KO 24km
Päivitetty: 18/09/2021 23:20
Enimmäkseen pilvistä
Enimmäkseen pilvistä
 Tuulen suunta KO
Tuuli: KO 17 km/h
Lämpötila: 8°C
Hyytävyys: 5°C
Kastepiste: 4°C
Kosteus: 76%
Ilmanpaine: 1026 hPa
Pilvet: Enimmäkseen pilvistä
Näkyvyys: 10 km
Pilvitiedot: Enimmäkseen pilvistä 1463 m
2021/09/18 20:20 EFHK 182020Z 05009KT 9999 BKN048 08/04 Q1026 NOSIG
EETN - Tallinn, Estonia
Ilmasuunta ja etäisyys Sääasema Bassenraitista: E 89km
Päivitetty: 18/09/2021 23:20
Osittain pilvistä
Osittain pilvistä
 Tuulen suunta I
Tuuli: I 20 km/h
Lämpötila: 6°C
Hyytävyys: 2°C
Kastepiste: 2°C
Kosteus: 76%
Ilmanpaine: 1025 hPa
Pilvet: Osittain pilvistä
Näkyvyys: 10 km
Pilvitiedot: Osittain pilvistä 1158 m
2021/09/18 20:20 EETN 182020Z 09011KT 9999 FEW038 06/02 Q1025 NOSIG
 
EFTU - Turku/Abo, Finland
Ilmasuunta ja etäisyys Sääasema Bassenraitista: LLU 133km
Päivitetty: 18/09/2021 23:20
Vaihetelvaa
Vaihetelvaa
 Tuulen suunta KO
Tuuli: KO 7 km/h
Lämpötila: 8°C
Hyytävyys: 7°C
Kastepiste: 4°C
Kosteus: 76%
Ilmanpaine: 1027 hPa
Pilvet: Vaihetelvaa
Näkyvyys: 10 km
Pilvitiedot: Vaihetelvaa 1433 m
2021/09/18 20:20 EFTU 182020Z AUTO 04004KT 010V080 9999 OVC047 08/04 Q1027
EFTP - Tampere/Pirkkala, Finland
Ilmasuunta ja etäisyys Sääasema Bassenraitista: PLU 146km
Päivitetty: 18/09/2021 23:20
Vaihetelvaa
Vaihetelvaa
 Tuulen suunta IKO
Tuuli: IKO 7 km/h
Lämpötila: 7°C
Hyytävyys: 6°C
Kastepiste: 4°C
Kosteus: 81%
Ilmanpaine: 1028 hPa
Pilvet: Vaihetelvaa
Näkyvyys: 10 km
Pilvitiedot: Vaihetelvaa 1494 m
2021/09/18 20:20 EFTP 182020Z AUTO 06004KT 9999 OVC049 07/04 Q1028
 
EFUT - Utti (fin-Afb), Finland
Ilmasuunta ja etäisyys Sääasema Bassenraitista: IKO 148km
Päivitetty: 18/09/2021 23:20
Enimmäkseen pilvistä
Enimmäkseen pilvistä
 Tuulen suunta IKO
Tuuli: IKO 11 km/h
Lämpötila: 6°C
Hyytävyys: 4°C
Kastepiste: 3°C
Kosteus: 81%
Ilmanpaine: 1027 hPa
Pilvet: Enimmäkseen pilvistä
Näkyvyys: 10 km
Pilvitiedot: Enimmäkseen pilvistä 1189 m
2021/09/18 20:20 EFUT 182020Z AUTO 06006KT 9999 BKN039 06/03 Q1027
EEKA - Kardla, Estonia
Ilmasuunta ja etäisyys Sääasema Bassenraitista: LO 168km
Päivitetty: 18/09/2021 10:50
NOT Current
Selkeätä
Selkeätä
 Tuulen suunta IKO
Tuuli: IKO 15 km/h
Lämpötila: 11°C
Kastepiste: 4°C
Kosteus: 62%
Ilmanpaine: 1024 hPa
Yhteenveto: Selkeätä
Näkyvyys: enemmän kuin 10 km
2021/09/18 07:50 EEKA 180750Z 07008KT 030V110 CAVOK 11/04 Q1024
 
EFHA - Halli (fin-Afb), Finland
Ilmasuunta ja etäisyys Sääasema Bassenraitista: P 184km
Päivitetty: 18/09/2021 23:20
Vaihetelvaa
Vaihetelvaa
 Tuulen suunta I
Tuuli: I 7 km/h
Lämpötila: 7°C
Hyytävyys: 6°C
Kastepiste: 4°C
Kosteus: 81%
Ilmanpaine: 1028 hPa
Pilvet: Vaihetelvaa
Näkyvyys: 10 km
Pilvitiedot: Vaihetelvaa 1463 m
2021/09/18 20:20 EFHA 182020Z AUTO 08004KT 9999 OVC048 07/04 Q1028
EEPU - Parnu, Estonia
Ilmasuunta ja etäisyys Sääasema Bassenraitista: E 198km
Päivitetty: 30/11/2020 16:20
NOT Current
Light snow, Mist, Vaihetelvaa
Light snow, Mist, Vaihetelvaa
 Tuulen suunta varies
Tuuli: varies 4 km/h
Lämpötila: 0°C
Kastepiste: 0°C
Kosteus: 100%
Ilmanpaine: 1015 hPa
Yhteenveto: Light snow, Mist
Pilvet: Vaihetelvaa
Näkyvyys: 4 km
Pilvitiedot: Enimmäkseen pilvistä 274 m
Vaihetelvaa 427 m
2020/11/30 14:20 EEPU 301420Z VRB02KT 3600 -SN BR BKN009 OVC014 M00/M00 Q1015
 
EFPO - Pori (mil/Civ), Finland
Ilmasuunta ja etäisyys Sääasema Bassenraitista: LU 207km
Päivitetty: 18/09/2021 23:20
Selkeätä
Selkeätä
 Tuulen suunta IKO
Tuuli: IKO 6 km/h
Lämpötila: 8°C
Kastepiste: 5°C
Kosteus: 82%
Ilmanpaine: 1028 hPa
Yhteenveto: Selkeätä
Näkyvyys: enemmän kuin 10 km
2021/09/18 20:20 EFPO 182020Z AUTO 07003KT 040V130 CAVOK 08/05 Q1028
EFLP - Lappeenranta, Finland
Ilmasuunta ja etäisyys Sääasema Bassenraitista: IKO 215km
Päivitetty: 18/09/2021 23:20
Vaihetelvaa
Vaihetelvaa
 Tuulen suunta IKO
Tuuli: IKO 9 km/h
Lämpötila: 7°C
Hyytävyys: 6°C
Kastepiste: 2°C
Kosteus: 71%
Ilmanpaine: 1028 hPa
Pilvet: Vaihetelvaa
Näkyvyys: 10 km
Pilvitiedot: Vaihetelvaa 1189 m
2021/09/18 20:20 EFLP 182020Z AUTO 06005KT 9999 OVC039 07/02 Q1028
 
EFMI - Mikkeli, Finland
Ilmasuunta ja etäisyys Sääasema Bassenraitista: KO 217km
Päivitetty: 18/09/2021 23:20
Freezing fog, Selkeätä
Freezing fog, Selkeätä
 Tuulen suunta calm
Tuuli: Tyyntä
Lämpötila: 0°C
Kastepiste: -1°C
Kosteus: 93%
Ilmanpaine: 1029 hPa
Yhteenveto: Freezing Fog
Pilvet: Selkeätä
Näkyvyys: 1 km
2021/09/18 20:20 EFMI 182020Z AUTO 00000KT 0900 R11/2000D FZFG NCD M00/M01 Q1029
EETU - Tartu, Estonia
Ilmasuunta ja etäisyys Sääasema Bassenraitista: EKA 240km
Päivitetty: 18/09/2021 23:20
Selkeätä
Selkeätä
 Tuulen suunta IKO
Tuuli: IKO 15 km/h
Lämpötila: 6°C
Hyytävyys: 3°C
Kastepiste: 2°C
Kosteus: 76%
Ilmanpaine: 1022 hPa
Pilvet: Selkeätä
Näkyvyys: 10 km
2021/09/18 20:20 EETU 182020Z AUTO 07008KT 9999 NCD 06/02 Q1022
 
EEKE - Kuressaare, Estonia
Ilmasuunta ja etäisyys Sääasema Bassenraitista: ELO 249km
Päivitetty: 18/09/2021 23:20
Enimmäkseen pilvistä
Enimmäkseen pilvistä
 Tuulen suunta IKO
Tuuli: IKO 22 km/h
Lämpötila: 9°C
Hyytävyys: 6°C
Kastepiste: 3°C
Kosteus: 66%
Ilmanpaine: 1022 hPa
Pilvet: Enimmäkseen pilvistä
Näkyvyys: 10 km
Pilvitiedot: Enimmäkseen pilvistä 1036 m
2021/09/18 20:20 EEKE 182020Z AUTO 07012KT 9999NDV BKN034 09/03 Q1022
EFJY - Jyvaskyla (mil/C, Finland
Ilmasuunta ja etäisyys Sääasema Bassenraitista: PKO 252km
Päivitetty: 18/09/2021 23:20
Vaihetelvaa
Vaihetelvaa
 Tuulen suunta varies
Tuuli: varies 4 km/h
Lämpötila: 7°C
Kastepiste: 5°C
Kosteus: 87%
Ilmanpaine: 1029 hPa
Pilvet: Vaihetelvaa
Näkyvyys: 10 km
Pilvitiedot: Osittain pilvistä 1158 m
Vaihetelvaa 1524 m
2021/09/18 20:20 EFJY 182020Z AUTO VRB02KT 9999 FEW038 OVC050 07/05 Q1029
 
EFMA - Mariehamn/Aland, Finland
Ilmasuunta ja etäisyys Sääasema Bassenraitista: L 261km
Päivitetty: 18/09/2021 23:20
Vaihetelvaa
Vaihetelvaa
 Tuulen suunta PKO
Tuuli: PKO 9 km/h
Lämpötila: 9°C
Hyytävyys: 7°C
Kastepiste: 5°C
Kosteus: 76%
Ilmanpaine: 1026 hPa
Pilvet: Vaihetelvaa
Näkyvyys: 10 km
Pilvitiedot: Vaihetelvaa 1402 m
2021/09/18 20:20 EFMA 182020Z AUTO 03005KT 9999 OVC046 09/05 Q1026
EFSI - Seinajoki-Ilmajo, Finland
Ilmasuunta ja etäisyys Sääasema Bassenraitista: PLU 294km
Päivitetty: 18/09/2021 23:20
Selkeätä
Selkeätä
 Tuulen suunta I
Tuuli: I 6 km/h
Lämpötila: 5°C
Kastepiste: 4°C
Kosteus: 93%
Ilmanpaine: 1029 hPa
Yhteenveto: Selkeätä
Näkyvyys: enemmän kuin 10 km
2021/09/18 20:20 EFSI 182020Z AUTO 10003KT CAVOK 05/04 Q1029